CheckWX is a tool to help pilots better visualize weather data.  It is not intended as a substitute for an official pre-flight weather briefing.

21:37:08 UTC

KDLO METAR
Delano Municipal Airport
Delano, California, USA
Current

22 mins ago

KDLO 232115Z AUTO 00000KT 10SM CLR 11/M01 A3031 RMK AO2 T01121012
Observed
Feb-23 @ 21:15 UTC
Visibility
10 SM
Flight Rules
VFR
Cloud Levels
  • Clear skies
Temperature
11°C / 52°F
Dewpoint
-1°C / 30°F
Humidity
44%
Altimeter
30.31" Hg
Pressure
1026.42 hPa
Previous

42 mins ago

KDLO 232055Z AUTO 00000KT 10SM CLR 11/M01 A3032 RMK AO2 T01061009
Observed
Feb-23 @ 20:55 UTC
Visibility
10 SM
Flight Rules
VFR
Cloud Levels
  • Clear skies
Temperature
11°C / 52°F
Dewpoint
-1°C / 30°F
Humidity
44%
Altimeter
30.32" Hg
Pressure
1026.72 hPa
Previous

1 hour ago

KDLO 232035Z AUTO 00000KT 10SM CLR 11/M01 A3033 RMK AO2 T01051009
Observed
Feb-23 @ 20:35 UTC
Visibility
10 SM
Flight Rules
VFR
Cloud Levels
  • Clear skies
Temperature
11°C / 52°F
Dewpoint
-1°C / 30°F
Humidity
44%
Altimeter
30.33" Hg
Pressure
1027.12 hPa